Flight Track Log - Related Links

Times and Time Zones

All times are in EST time to prevent confusion due to time zone crossing. See the EJA941 flight status page for this flight to view local times or setup timezone preferences in your user account.


Time Position Orientation Groundspeed Altitude Reporting Facility
EST Latitude Longitude Course Direction KTS MPH feet Rate Location/Type
Tue 03:27:26 PM 36.1306 -115.1208 48° Northeast 204 235 5,500  Level Los Angeles Center
Tue 03:28:04 PM 36.1339 -115.0725 85° East 230 265 7,200 2,816 Climbing Los Angeles Center
Tue 03:28:15 PM 36.1364 -115.0578 78° East 248 285 7,800 3,871 Climbing Los Angeles Center
Tue 03:29:06 PM 36.1347 -114.9789 91° East 278 320 11,200 3,611 Climbing Los Angeles Center
Tue 03:30:08 PM 36.1111 -114.8900 108° East 291 335 14,600 3,290 Climbing Los Angeles Center
Tue 03:31:10 PM 36.0778 -114.7650 108° East 315 362 18,000 2,758 Climbing Los Angeles Center
Tue 03:32:12 PM 36.0494 -114.6536 107° East 335 386 20,300 2,177 Climbing Los Angeles Center
Tue 03:33:14 PM 36.0164 -114.5317 108° East 375 432 22,500 2,032 Climbing Los Angeles Center
Tue 03:34:16 PM 35.9947 -114.4036 102° East 383 441 24,500 2,032 Climbing Los Angeles Center
Tue 03:35:18 PM 35.9756 -114.2697 100° East 395 455 26,700 2,129 Climbing Los Angeles Center
Tue 03:36:20 PM 35.9556 -114.1311 100° East 408 470 28,900 1,887 Climbing Los Angeles Center
Tue 03:37:22 PM 35.9300 -113.9567 100° East 430 495 30,600 1,306 Climbing Los Angeles Center
Tue 03:38:24 PM 35.9019 -113.8028 103° East 458 527 31,600 968 Climbing Los Angeles Center
Tue 03:39:26 PM 35.8681 -113.6417 105° East 482 555 32,600 968 Climbing Los Angeles Center
Tue 03:40:28 PM 35.8381 -113.4936 104° East 488 562 33,600 919 Climbing Los Angeles Center
Tue 03:41:30 PM 35.8047 -113.3281 104° East 496 571 34,500 672 Climbing Los Angeles Center
Tue 03:42:33 PM 35.7631 -113.1286 104° East 499 574 35,000 528 Climbing Los Angeles Center
Tue 03:43:35 PM 35.7281 -112.9589 104° East 508 585 35,600 774 Climbing Los Angeles Center
Tue 03:44:37 PM 35.6936 -112.7933 104° East 500 575 36,600 829 Climbing Los Angeles Center
Tue 03:45:38 PM 35.6644 -112.6628 105° East 492 566 37,300 774 Climbing Los Angeles Center
Tue 03:46:41 PM 35.6217 -112.4644 105° East 499 574 38,200 768 Climbing Los Angeles Center
Tue 03:47:43 PM 35.5783 -112.3025 108° East 501 577 38,900 726 Climbing Los Angeles Center
Tue 03:48:45 PM 35.5228 -112.1428 113° Southeast 507 583 39,700 823 Climbing Los Angeles Center
Tue 03:49:47 PM 35.4581 -111.9489 112° Southeast 511 588 40,600 629 Climbing Los Angeles Center
Tue 03:50:49 PM 35.4033 -111.7881 113° Southeast 512 589 41,000 194 Climbing Los Angeles Center
Tue 03:51:51 PM 35.3497 -111.6278 112° Southeast 516 594 41,000  Level Los Angeles Center
Tue 03:52:53 PM 35.2908 -111.4600 113° Southeast 529 609 41,000  Level Los Angeles Center
Tue 03:53:53 PM 35.2317 -111.2928 113° Southeast 534 615 41,000  Level Albuquerque Center
Tue 03:54:55 PM 35.1742 -111.1247 113° Southeast 534 615 41,000  Level Albuquerque Center
Tue 03:55:57 PM 35.1019 -110.9189 113° Southeast 541 623 41,000  Level Albuquerque Center
Tue 03:56:59 PM 35.0311 -110.7558 118° Southeast 542 624 41,000  Level Albuquerque Center
Tue 03:58:01 PM 34.9311 -110.6044 129° Southeast 538 619 41,000  Level Albuquerque Center
Tue 03:59:03 PM 34.8400 -110.4683 129° Southeast 540 621 41,000  Level Albuquerque Center
Tue 04:00:05 PM 34.7325 -110.3103 130° Southeast 542 624 41,000  Level Albuquerque Center
Tue 04:01:07 PM 34.6392 -110.1739 130° Southeast 546 628 41,000  Level Albuquerque Center
Tue 04:02:09 PM 34.5286 -110.0119 130° Southeast 552 635 41,000  Level Albuquerque Center
Tue 04:03:11 PM 34.4347 -109.8753 130° Southeast 554 638 41,000 242 Level Albuquerque Center
Tue 04:04:13 PM 34.3256 -109.7175 130° Southeast 550 633 41,500 435 Climbing Albuquerque Center
Tue 04:05:15 PM 34.2325 -109.5831 130° Southeast 547 629 41,900 435 Climbing Albuquerque Center
Tue 04:06:17 PM 34.1406 -109.4500 130° Southeast 543 625 42,400 532 Climbing Albuquerque Center
Tue 04:07:19 PM 34.0303 -109.2953 131° Southeast 541 623 43,000 290 Climbing Albuquerque Center
Tue 04:08:21 PM 33.9333 -109.1569 130° Southeast 541 623 43,000  Level Albuquerque Center
Tue 04:09:23 PM 33.8333 -109.0183 131° Southeast 544 626 43,000  Level Albuquerque Center
Tue 04:10:25 PM 33.7336 -108.8778 130° Southeast 549 632 43,000  Level Albuquerque Center
Tue 04:11:27 PM 33.6328 -108.7358 130° Southeast 553 636 43,000  Level Albuquerque Center
Tue 04:12:29 PM 33.5314 -108.5956 131° Southeast 554 638 43,000  Level Albuquerque Center
Tue 04:13:31 PM 33.4086 -108.4242 131° Southeast 558 642 43,000  Level Albuquerque Center
Tue 04:14:33 PM 33.3061 -108.2839 131° Southeast 559 643 43,000  Level Albuquerque Center
Tue 04:15:35 PM 33.2047 -108.1456 131° Southeast 555 639 43,000  Level Albuquerque Center
Tue 04:16:37 PM 33.1033 -108.0064 131° Southeast 554 638 43,000  Level Albuquerque Center
Tue 04:17:39 PM 33.0028 -107.8686 131° Southeast 551 634 43,000  Level Albuquerque Center
Tue 04:18:41 PM 32.9028 -107.7350 132° Southeast 551 634 43,000  Level Albuquerque Center
Tue 04:19:43 PM 32.7836 -107.5731 131° Southeast 545 627 43,000  Level Albuquerque Center
Tue 04:20:45 PM 32.6817 -107.4342 131° Southeast 545 627 43,000  Level Albuquerque Center
Tue 04:21:47 PM 32.5828 -107.2975 131° Southeast 547 629 43,000  Level Albuquerque Center
Tue 04:22:49 PM 32.4769 -107.1586 132° Southeast 548 631 43,000  Level Albuquerque Center
Tue 04:23:51 PM 32.3711 -107.0111 130° Southeast 548 631 43,000  Level Albuquerque Center
Tue 04:24:53 PM 32.2700 -106.8747 131° Southeast 550 633 43,000  Level Albuquerque Center
Tue 04:25:54 PM 32.1703 -106.7456 132° Southeast 552 635 43,000  Level Albuquerque Center
Tue 04:26:56 PM 32.0683 -106.6108 132° Southeast 551 634 43,000  Level Albuquerque Center
Tue 04:27:58 PM 31.9647 -106.4767 132° Southeast 553 636 43,000  Level Albuquerque Center
Tue 04:29:00 PM 31.8461 -106.3175 131° Southeast 556 640 43,000  Level Albuquerque Center
Tue 04:30:02 PM 31.7822 -106.1494 114° Southeast 563 648 43,000  Level Albuquerque Center
Tue 04:31:04 PM 31.7375 -105.9739 107° East 561 646 43,000  Level Albuquerque Center
Tue 04:32:06 PM 31.6942 -105.7986 106° East 559 643 43,000  Level Albuquerque Center
Tue 04:33:08 PM 31.6494 -105.6219 107° East 562 647 43,000  Level Albuquerque Center
Tue 04:34:10 PM 31.6061 -105.4450 106° East 563 648 43,000  Level Albuquerque Center
Tue 04:35:11 PM 31.5614 -105.2694 107° East 562 647 43,000  Level Albuquerque Center
Tue 04:36:13 PM 31.5069 -105.0550 107° East 562 647 43,000  Level Albuquerque Center
Tue 04:37:15 PM 31.4614 -104.8789 107° East 566 651 43,000  Level Albuquerque Center
Tue 04:38:17 PM 31.4158 -104.7025 107° East 566 651 43,000  Level Albuquerque Center
Tue 04:39:19 PM 31.3694 -104.5264 107° East 565 650 43,000  Level Albuquerque Center
Tue 04:40:20 PM 31.3247 -104.3522 107° East 560 644 43,000  Level Albuquerque Center
Tue 04:41:22 PM 31.2794 -104.1761 107° East 562 647 43,000  Level Albuquerque Center
Tue 04:42:24 PM 31.2311 -104.0000 108° East 567 652 43,000  Level Albuquerque Center
Tue 04:43:26 PM 31.1847 -103.8250 107° East 566 651 43,000  Level Albuquerque Center
Tue 04:44:28 PM 31.1267 -103.6194 108° East 570 656 43,000  Level Albuquerque Center
Tue 04:45:30 PM 31.0781 -103.4436 108° East 571 657 43,000  Level Albuquerque Center
Tue 04:46:31 PM 31.0294 -103.2681 108° East 570 656 43,000  Level Albuquerque Center
Tue 04:47:33 PM 30.9831 -103.0944 107° East 567 652 43,000  Level Albuquerque Center
Tue 04:48:35 PM 30.9406 -102.8789 103° East 578 665 43,000  Level Albuquerque Center
Tue 04:49:37 PM 30.9219 -102.6964 97° East 576 663 43,000  Level Albuquerque Center
Tue 04:50:39 PM 30.9033 -102.5131 97° East 577 664 43,000  Level Albuquerque Center
Tue 04:51:23 PM 30.8897 -102.3683 96° East 573 659 43,000 -57 Level Houston Center
Tue 04:52:25 PM 30.8714 -102.1861 97° East 574 661 42,900  Descending Houston Center
Tue 04:53:27 PM 30.8519 -102.0031 97° East 576 663 43,000 48 Climbing Houston Center
Tue 04:54:29 PM 30.8325 -101.8203 97° East 575 662 43,000  Level Houston Center
Tue 04:55:31 PM 30.8122 -101.6000 96° East 576 663 43,000  Level Houston Center
Tue 04:56:33 PM 30.7956 -101.4147 96° East 575 662 43,000  Level Houston Center
Tue 04:57:35 PM 30.7753 -101.2322 97° East 574 661 43,000  Level Houston Center
Tue 04:58:37 PM 30.7583 -101.0453 96° East 577 664 43,000  Level Houston Center
Tue 04:59:39 PM 30.7389 -100.8597 97° East 578 665 43,000  Level Houston Center
Tue 05:00:41 PM 30.7192 -100.6742 97° East 577 664 43,000  Level Houston Center
Tue 05:01:44 PM 30.7003 -100.4881 97° East 579 666 43,000  Level Houston Center
Tue 05:02:46 PM 30.6756 -100.2642 97° East 580 667 43,000  Level Houston Center
Tue 05:03:48 PM 30.6553 -100.0781 97° East 577 664 43,000  Level Houston Center
Tue 05:04:50 PM 30.6353 -99.8906 97° East 581 669 43,000  Level Houston Center
Tue 05:05:52 PM 30.6133 -99.7031 98° East 583 671 43,000  Level Houston Center
Tue 05:06:54 PM 30.5928 -99.5161 97° East 583 671 43,000  Level Houston Center
Tue 05:07:56 PM 30.5711 -99.3303 98° East 582 670 43,000  Level Houston Center
Tue 05:08:58 PM 30.5511 -99.1442 97° East 582 670 43,000  Level Houston Center
Tue 05:10:00 PM 30.5258 -98.9406 98° East 582 670 43,000  Level Houston Center
Tue 05:11:03 PM 30.5053 -98.7519 97° East 585 673 43,000  Level Houston Center
Tue 05:12:05 PM 30.4786 -98.5331 98° East 584 672 43,000  Level Houston Center
Tue 05:13:07 PM 30.4547 -98.3453 98° East 584 672 43,000  Level Houston Center
Tue 05:14:09 PM 30.4325 -98.1581 98° East 585 673 43,000  Level Houston Center
Tue 05:15:11 PM 30.4086 -97.9714 98° East 585 673 43,000  Level Houston Center
Tue 05:16:13 PM 30.3858 -97.7844 98° East 585 673 43,000  Level Houston Center
Tue 05:17:15 PM 30.3619 -97.5983 98° East 584 672 43,000  Level Houston Center
Tue 05:18:17 PM 30.3344 -97.3803 98° East 585 673 43,000  Level Houston Center
Tue 05:19:20 PM 30.3097 -97.1939 99° East 585 673 43,000  Level Houston Center
Tue 05:20:22 PM 30.2853 -97.0061 99° East 587 676 43,000  Level Houston Center
Tue 05:21:24 PM 30.2606 -96.8194 99° East 586 674 43,000  Level Houston Center
Tue 05:22:26 PM 30.2353 -96.6317 99° East 588 677 43,000  Level Houston Center
Tue 05:23:28 PM 30.2047 -96.4136 99° East 587 676 43,000  Level Houston Center
Tue 05:24:30 PM 30.1789 -96.2258 99° East 588 677 43,000  Level Houston Center
Tue 05:25:32 PM 30.1522 -96.0397 99° East 585 673 43,000  Level Houston Center
Tue 05:26:34 PM 30.1294 -95.8736 99° East 585 673 43,000  Level Houston Center
Tue 05:27:36 PM 30.0961 -95.6503 100° East 586 674 43,000  Level Houston Center
Tue 05:28:39 PM 30.0703 -95.4636 99° East 587 676 43,000  Level Houston Center
Tue 05:29:41 PM 30.0428 -95.2758 100° East 589 678 43,000  Level Houston Center
Tue 05:30:43 PM 30.0147 -95.0875 100° East 590 679 43,000  Level Houston Center
Tue 05:31:45 PM 29.9869 -94.8986 100° East 591 680 43,000  Level Houston Center
Tue 05:32:47 PM 29.9586 -94.7083 100° East 596 686 43,000  Level Houston Center
Tue 05:33:49 PM 29.9297 -94.5186 100° East 598 688 43,000  Level Houston Center
Tue 05:34:51 PM 29.8947 -94.2928 100° East 597 687 43,000  Level Houston Center
Tue 05:35:53 PM 29.8683 -94.1256 100° East 602 693 43,000  Level Houston Center
Tue 05:36:56 PM 29.8339 -93.9025 100° East 598 688 43,000  Level Houston Center
Tue 05:37:58 PM 29.8047 -93.7178 100° East 595 685 43,000  Level Houston Center
Tue 05:39:00 PM 29.7750 -93.5328 100° East 594 684 43,000  Level Houston Center
Tue 05:40:02 PM 29.7442 -93.3483 101° East 594 684 43,000  Level Houston Center
Tue 05:41:04 PM 29.7150 -93.1633 100° East 594 684 43,000  Level Houston Center
Tue 05:42:06 PM 29.6783 -92.9403 101° East 595 685 43,000  Level Houston Center
Tue 05:43:08 PM 29.6472 -92.7558 101° East 594 684 43,000 -48 Level Houston Center
Tue 05:44:10 PM 29.6086 -92.5719 104° East 595 685 42,900  Descending Houston Center
Tue 05:45:13 PM 29.5619 -92.3900 106° East 596 686 43,000 48 Climbing Houston Center
Tue 05:46:15 PM 29.5161 -92.2086 106° East 593 682 43,000  Level Houston Center
Tue 05:47:17 PM 29.4589 -91.9900 107° East 596 686 43,000  Level Houston Center
Tue 05:48:19 PM 29.4133 -91.8086 106° East 596 686 43,000  Level Houston Center
Tue 05:49:21 PM 29.3658 -91.6250 106° East 597 687 43,000  Level Houston Center
Tue 05:50:23 PM 29.3192 -91.4425 106° East 599 689 43,000  Level Houston Center
Tue 05:51:25 PM 29.2731 -91.2625 106° East 595 685 43,000  Level Houston Center
Tue 05:52:28 PM 29.2156 -91.0475 107° East 593 682 43,000  Level Houston Center
Tue 05:53:30 PM 29.1672 -90.8661 107° East 595 685 43,000  Level Houston Center
Tue 05:54:32 PM 29.1208 -90.6889 107° East 591 680 43,000  Level Houston Center
Tue 05:55:34 PM 29.0736 -90.5119 107° East 586 674 43,000  Level Houston Center
Tue 05:56:36 PM 29.0253 -90.3356 107° East 586 674 43,000  Level Houston Center
Tue 05:57:38 PM 28.9778 -90.1567 107° East 589 678 43,000  Level Houston Center
Tue 05:58:40 PM 28.9189 -89.9442 108° East 589 678 43,000  Level Houston Center
Tue 05:59:42 PM 28.8717 -89.7669 107° East 589 678 43,000  Level Houston Center
Tue 06:00:45 PM 28.8225 -89.5897 108° East 588 677 43,000  Level Houston Center
Tue 06:01:47 PM 28.7731 -89.4086 107° East 597 687 43,000  Level Houston Center
Tue 06:02:49 PM 28.7233 -89.2314 108° East 593 682 43,000  Level Houston Center
Tue 06:03:51 PM 28.6639 -89.0181 108° East 591 680 43,000  Level Houston Center
Tue 06:04:53 PM 28.6142 -88.8433 108° East 586 674 43,000  Level Houston Center
Tue 06:05:55 PM 28.5633 -88.6672 108° East 586 674 43,000  Level Houston Center
Tue 06:06:57 PM 28.5144 -88.4911 107° East 587 676 43,000  Level Houston Center
Tue 06:07:59 PM 28.4639 -88.3144 108° East 588 677 43,000  Level Houston Center
Tue 06:09:02 PM 28.4028 -88.1042 108° East 587 676 43,000  Level Houston Center
Tue 06:10:04 PM 28.3578 -87.9456 108° East 588 677 43,000  Level Houston Center
Tue 06:11:06 PM 28.3067 -87.7692 108° East 590 679 43,000  Level Houston Center
Tue 06:12:08 PM 28.2456 -87.5597 108° East 587 676 43,000  Level Houston Center
Tue 06:13:10 PM 28.1947 -87.3844 108° East 588 677 43,000  Level Houston Center
Tue 06:14:12 PM 28.1428 -87.2089 109° East 588 677 43,000  Level Houston Center
Tue 06:15:14 PM 28.0914 -87.0325 108° East 590 679 43,000  Level Houston Center
Tue 06:16:16 PM 28.0336 -86.8406 109° East 585 673 43,000  Level Houston Center
Tue 06:17:19 PM 27.9781 -86.6511 108° East 584 672 43,000  Level Houston Center
Tue 06:18:21 PM 27.9278 -86.4783 108° East 582 670 43,000  Level Houston Center
Tue 06:19:21 PM 27.8753 -86.3033 109° East 585 673 43,000  Level Jacksonville Center
Tue 06:20:21 PM 27.8236 -86.1258 108° East 585 673 43,000  Level Jacksonville Center
Tue 06:21:21 PM 27.7733 -85.9600 109° East 573 659 43,000  Level Jacksonville Center
Tue 06:22:21 PM 27.7211 -85.7828 108° East 572 658 43,000  Level Jacksonville Center
Tue 06:23:34 PM 27.6739 -85.6006 106° East 569 655 43,000  Level Miami Center
Tue 06:24:34 PM 27.6222 -85.4211 108° East 581 669 43,000  Level Miami Center
Tue 06:25:34 PM 27.5742 -85.2469 107° East 581 669 43,000  Level Miami Center
Tue 06:26:34 PM 27.5361 -85.0758 104° East 572 658 43,000  Level Miami Center
Tue 06:27:34 PM 27.4956 -84.9047 105° East 565 650 43,000  Level Miami Center
Tue 06:28:34 PM 27.4489 -84.7308 107° East 571 657 43,000  Level Miami Center
Tue 06:29:34 PM 27.4039 -84.5594 106° East 571 657 43,000  Level Miami Center
Tue 06:30:34 PM 27.3547 -84.3881 108° East 571 657 43,000  Level Miami Center
Tue 06:31:34 PM 27.3153 -84.2197 105° East 566 651 43,000  Level Miami Center
Tue 06:32:34 PM 27.2719 -84.0492 106° East 566 651 43,000  Level Miami Center
Tue 06:33:34 PM 27.2261 -83.8758 107° East 566 651 43,000 -900 Level Miami Center
Tue 06:34:34 PM 27.1803 -83.7053 107° East 566 651 41,200 -2,650 Descending Miami Center
Tue 06:35:34 PM 27.1381 -83.5372 106° East 566 651 37,700 -3,550 Descending Miami Center
Tue 06:36:34 PM 27.0894 -83.3642 107° East 571 657 34,100 -3,600 Descending Miami Center
Tue 06:37:34 PM 27.0469 -83.1964 106° East 571 657 30,500 -3,600 Descending Miami Center
Tue 06:38:34 PM 27.0019 -83.0286 107° East 566 651 26,900 -3,500 Descending Miami Center
Tue 06:39:34 PM 26.9606 -82.8728 107° East 553 636 23,500 -3,250 Descending Miami Center
Tue 06:40:34 PM 26.9208 -82.7242 107° East 521 600 20,400 -2,950 Descending Miami Center
Tue 06:41:34 PM 26.8842 -82.5919 107° East 480 552 17,600 -2,900 Descending Miami Center
Tue 06:42:34 PM 26.8456 -82.4619 108° East 414 476 14,600 -2,700 Descending Miami Center
Tue 06:43:34 PM 26.8142 -82.3514 108° East 375 432 12,200 -2,250 Descending Miami Center
Tue 06:44:34 PM 26.7633 -82.2628 123° Southeast 343 395 10,100 -1,900 Descending Miami Center
Tue 06:45:34 PM 26.6967 -82.2064 143° Southeast 308 354 8,400 -1,600 Descending Miami Center
Tue 06:46:34 PM 26.6336 -82.1569 145° Southeast 292 336 6,900 -1,500 Descending Miami Center
Tue 06:47:34 PM 26.5728 -82.1078 144° Southeast 270 311 5,400 -950 Descending Miami Center
Tue 06:48:34 PM 26.5161 -82.0611 144° Southeast 264 304 5,000 -550 Descending Miami Center
Tue 06:49:34 PM 26.4569 -82.0169 146° Southeast 259 298 4,300 -500 Descending Miami Center
Tue 06:50:34 PM 26.4133 -81.9569 129° Southeast 259 298 4,000 -300 Descending Miami Center
Tue 06:52:00 PM 26.5333 -81.7500 50° Northeast  Level FlightAware Approximate
Tue 06:59:00 PM 26.5362 -81.7552 50° Northeast  Level Estimated
Tue 07:00:00 PM 26.5333 -81.7500 50° Northeast  Level FlightAware Approximate
Tue 07:01:00 PM 26.5362 -81.7552 50° Northeast  Level Estimated
Tue 07:02:00 PM 26.5333 -81.7500 50° Northeast  Level FlightAware Approximate
Tue 07:03:00 PM 26.5362 -81.7552 50° Northeast  Level Estimated
Tue 07:04:00 PM 26.5333 -81.7500 50° Northeast  Level FlightAware Approximate
Tue 07:05:00 PM 26.5362 -81.7552 50° Northeast  Level Estimated

Login

Don't have an account? Register now (free) for customized features, flight alerts, and more!